createdAt,value
2018-04-28T00:00:11.969Z,88.09
2018-04-28T00:01:12.181Z,89.04
2018-04-28T00:02:12.385Z,88.85
2018-04-28T00:03:12.603Z,89.04
2018-04-28T00:04:12.811Z,89.61
2018-04-28T00:05:13.027Z,89.56
2018-04-28T00:06:14.793Z,89.33
2018-04-28T00:07:13.376Z,89.28
2018-04-28T00:08:15.299Z,89.37
2018-04-28T00:09:13.766Z,89.56
2018-04-28T00:10:13.988Z,89.18
2018-04-28T00:11:14.192Z,89.09
2018-04-28T00:12:16.315Z,89.28
2018-04-28T00:13:16.287Z,88.61
2018-04-28T00:14:14.739Z,88.61
2018-04-28T00:15:14.945Z,88.33
2018-04-28T00:16:16.789Z,88.90
2018-04-28T00:17:15.363Z,88.76
2018-04-28T00:18:15.579Z,88.47
2018-04-28T00:19:15.783Z,89.04
2018-04-28T00:20:16.002Z,89.52
2018-04-28T00:21:16.217Z,89.80
2018-04-28T00:22:16.423Z,89.90
2018-04-28T00:23:16.639Z,90.75
2018-04-28T00:24:16.842Z,90.56
2018-04-28T00:25:17.050Z,90.56
2018-04-28T00:26:17.274Z,90.75
2018-04-28T00:27:17.477Z,91.13
2018-04-28T00:28:17.680Z,90.66
2018-04-28T00:29:17.897Z,90.75
2018-04-28T00:30:20.790Z,90.56
2018-04-28T00:31:18.252Z,91.13
2018-04-28T00:32:18.466Z,91.71
2018-04-28T00:33:21.307Z,91.56
2018-04-28T00:34:18.901Z,91.94
2018-04-28T00:35:19.113Z,91.75
2018-04-28T00:36:19.322Z,91.85
2018-04-28T00:37:19.528Z,92.13
2018-04-28T00:38:19.756Z,91.80
2018-04-28T00:39:21.798Z,92.04
2018-04-28T00:40:21.790Z,91.75
2018-04-28T00:41:20.251Z,91.94
2018-04-28T00:42:20.455Z,91.47
2018-04-28T00:43:20.664Z,91.61
2018-04-28T00:44:20.871Z,91.28
2018-04-28T00:45:21.081Z,91.42
2018-04-28T00:46:22.785Z,91.04
2018-04-28T00:47:21.493Z,91.61
2018-04-28T00:48:25.283Z,91.38
2018-04-28T00:49:21.874Z,91.28
2018-04-28T00:50:22.084Z,90.71
2018-04-28T00:51:22.308Z,91.19
2018-04-28T00:52:25.297Z,91.09
2018-04-28T00:53:25.318Z,90.90
2018-04-28T00:54:22.910Z,91.66
2018-04-28T00:55:24.788Z,91.38
2018-04-28T00:56:24.794Z,91.85
2018-04-28T00:57:23.384Z,91.75
2018-04-28T00:58:23.614Z,92.04
2018-04-28T00:59:25.842Z,92.13
2018-04-28T01:00:24.037Z,92.37
2018-04-28T01:01:24.237Z,92.27
2018-04-28T01:02:24.346Z,92.23
2018-04-28T01:03:26.295Z,91.89
2018-04-28T01:04:24.769Z,92.23
2018-04-28T01:05:28.802Z,92.75
2018-04-28T01:06:25.146Z,92.27
2018-04-28T01:07:27.319Z,92.08
2018-04-28T01:08:25.507Z,91.80
2018-04-28T01:09:27.292Z,92.08
2018-04-28T01:10:25.877Z,91.99
2018-04-28T01:11:26.098Z,92.18
2018-04-28T01:12:26.354Z,91.80
2018-04-28T01:13:26.510Z,91.89
2018-04-28T01:14:26.746Z,91.99
2018-04-28T01:15:26.841Z,91.89
2018-04-28T01:16:27.044Z,91.71
2018-04-28T01:17:27.256Z,92.37
2018-04-28T01:18:30.287Z,91.66
2018-04-28T01:19:27.632Z,92.46
2018-04-28T01:20:30.792Z,91.71
2018-04-28T01:21:29.815Z,92.08
2018-04-28T01:22:28.141Z,92.08
2018-04-28T01:23:28.350Z,91.61
2018-04-28T01:24:28.557Z,91.99
2018-04-28T01:25:28.802Z,91.61
2018-04-28T01:26:30.793Z,91.99
2018-04-28T01:27:29.132Z,91.61
2018-04-28T01:28:29.349Z,91.99
2018-04-28T01:29:29.551Z,92.18
2018-04-28T01:30:29.759Z,91.99
2018-04-28T01:31:29.978Z,91.99
2018-04-28T01:32:30.180Z,91.89
2018-04-28T01:33:34.297Z,91.99
2018-04-28T01:34:30.515Z,91.71
2018-04-28T01:35:30.724Z,91.42
2018-04-28T01:36:30.931Z,91.52
2018-04-28T01:37:31.150Z,91.80
2018-04-28T01:38:31.355Z,91.80
2018-04-28T01:39:31.569Z,91.85
2018-04-28T01:40:31.784Z,91.99
2018-04-28T01:41:31.985Z,91.71
2018-04-28T01:42:32.208Z,91.52
2018-04-28T01:43:32.409Z,91.52
2018-04-28T01:44:32.619Z,91.71
2018-04-28T01:45:32.833Z,91.71
2018-04-28T01:46:33.040Z,91.71
2018-04-28T01:47:33.258Z,91.52
2018-04-28T01:48:33.475Z,91.71
2018-04-28T01:49:35.327Z,91.89
2018-04-28T01:50:35.786Z,92.08
2018-04-28T01:51:34.006Z,91.89
2018-04-28T01:52:34.264Z,91.61
2018-04-28T01:53:36.287Z,91.42
2018-04-28T01:54:34.501Z,91.71
2018-04-28T01:55:34.709Z,91.61
2018-04-28T01:56:36.805Z,91.52
2018-04-28T01:57:35.135Z,91.23
2018-04-28T01:58:35.335Z,91.42
2018-04-28T01:59:35.553Z,91.38
2018-04-28T02:00:35.794Z,91.56
2018-04-28T02:01:35.976Z,91.71
2018-04-28T02:02:36.191Z,92.23
2018-04-28T02:03:36.393Z,92.23
2018-04-28T02:04:36.598Z,92.42
2018-04-28T02:05:38.820Z,92.32
2018-04-28T02:06:37.025Z,91.66
2018-04-28T02:07:40.784Z,91.47
2018-04-28T02:08:37.362Z,91.38
2018-04-28T02:09:37.560Z,91.85
2018-04-28T02:10:41.301Z,91.85
2018-04-28T02:11:40.795Z,91.85
2018-04-28T02:12:37.990Z,92.32
2018-04-28T02:13:38.209Z,92.61
2018-04-28T02:14:40.295Z,92.32
2018-04-28T02:15:38.635Z,92.32
2018-04-28T02:16:38.837Z,92.99
2018-04-28T02:17:39.055Z,93.37
2018-04-28T02:18:39.261Z,93.37
2018-04-28T02:19:39.463Z,93.46
2018-04-28T02:20:41.286Z,93.75
2018-04-28T02:21:39.867Z,93.75
2018-04-28T02:22:40.084Z,93.65
2018-04-28T02:23:41.798Z,93.56
2018-04-28T02:24:40.501Z,93.65
2018-04-28T02:25:40.709Z,93.89
2018-04-28T02:26:40.944Z,94.51
2018-04-28T02:27:41.160Z,94.84
2018-04-28T02:28:43.286Z,94.46
2018-04-28T02:29:41.487Z,95.17
2018-04-28T02:30:43.308Z,94.84
2018-04-28T02:31:41.907Z,95.22
2018-04-28T02:32:42.121Z,94.46
2018-04-28T02:33:44.292Z,94.65
2018-04-28T02:34:44.339Z,94.51
2018-04-28T02:35:42.641Z,94.51
2018-04-28T02:36:42.856Z,94.51
2018-04-28T02:37:43.091Z,94.23
2018-04-28T02:38:43.296Z,94.27
2018-04-28T02:39:43.497Z,94.42
2018-04-28T02:40:46.287Z,94.32
2018-04-28T02:41:45.829Z,94.13
2018-04-28T02:42:45.785Z,94.13
2018-04-28T02:43:44.172Z,94.42
2018-04-28T02:44:44.346Z,94.32
2018-04-28T02:45:46.323Z,94.23
2018-04-28T02:46:44.771Z,94.32
2018-04-28T02:47:44.985Z,94.23
2018-04-28T02:48:45.199Z,94.32
2018-04-28T02:49:45.405Z,93.94
2018-04-28T02:50:45.624Z,94.32
2018-04-28T02:51:48.798Z,94.32
2018-04-28T02:52:46.001Z,94.60
2018-04-28T02:53:46.227Z,94.89
2018-04-28T02:54:46.421Z,94.79
2018-04-28T02:55:46.650Z,94.89
2018-04-28T02:56:46.745Z,94.51
2018-04-28T02:57:48.808Z,94.60
2018-04-28T02:58:47.172Z,94.32
2018-04-28T02:59:48.804Z,94.60
2018-04-28T03:00:49.289Z,94.13
2018-04-28T03:01:47.641Z,94.23
2018-04-28T03:02:51.782Z,93.94
2018-04-28T03:03:48.019Z,93.84
2018-04-28T03:04:48.221Z,93.84
2018-04-28T03:05:48.429Z,94.03
2018-04-28T03:06:48.674Z,94.03
2018-04-28T03:07:48.857Z,93.94
2018-04-28T03:08:50.823Z,93.94
2018-04-28T03:09:50.795Z,94.03
2018-04-28T03:10:49.509Z,93.65
2018-04-28T03:11:51.314Z,94.23
2018-04-28T03:12:51.792Z,94.32
2018-04-28T03:13:52.793Z,94.51
2018-04-28T03:14:50.125Z,94.51
2018-04-28T03:15:50.330Z,94.13
2018-04-28T03:16:50.566Z,94.42
2018-04-28T03:17:50.775Z,94.13
2018-04-28T03:18:54.800Z,94.51
2018-04-28T03:19:52.792Z,94.60
2018-04-28T03:20:53.784Z,94.89
2018-04-28T03:21:54.326Z,94.51
2018-04-28T03:22:54.288Z,94.51
2018-04-28T03:23:51.739Z,95.17
2018-04-28T03:24:51.958Z,94.89
2018-04-28T03:25:52.197Z,94.79
2018-04-28T03:26:54.315Z,95.17
2018-04-28T03:27:52.533Z,94.42
2018-04-28T03:28:52.747Z,94.42
2018-04-28T03:29:52.960Z,94.79
2018-04-28T03:30:53.166Z,94.70
2018-04-28T03:31:53.386Z,94.70
2018-04-28T03:32:53.586Z,94.51
2018-04-28T03:33:53.796Z,95.17
2018-04-28T03:34:55.786Z,95.46
2018-04-28T03:35:54.143Z,94.51
2018-04-28T03:36:56.284Z,94.32
2018-04-28T03:37:54.507Z,94.03
2018-04-28T03:38:57.294Z,93.65
2018-04-28T03:39:56.788Z,93.75
2018-04-28T03:40:54.996Z,93.99
2018-04-28T03:41:55.212Z,94.08
2018-04-28T03:42:55.419Z,93.99
2018-04-28T03:43:57.311Z,93.80
2018-04-28T03:44:55.784Z,93.89
2018-04-28T03:45:56.017Z,93.51
2018-04-28T03:46:56.223Z,93.80
2018-04-28T03:47:56.412Z,94.08
2018-04-28T03:48:56.628Z,94.18
2018-04-28T03:49:56.849Z,94.46
2018-04-28T03:50:58.745Z,95.60
2018-04-28T03:51:57.213Z,95.03
2018-04-28T03:52:57.416Z,95.51
2018-04-28T03:53:57.642Z,95.41
2018-04-28T03:54:57.742Z,96.26
2018-04-28T03:55:57.944Z,96.08
2018-04-28T03:56:58.160Z,96.26
2018-04-28T03:58:00.284Z,95.70
2018-04-28T03:58:58.486Z,95.60
2018-04-28T04:00:00.308Z,95.51
2018-04-28T04:00:58.887Z,95.22
2018-04-28T04:02:00.791Z,95.60
2018-04-28T04:02:59.277Z,95.60
2018-04-28T04:03:59.497Z,96.08
2018-04-28T04:04:59.693Z,96.08
2018-04-28T04:05:59.891Z,96.17
2018-04-28T04:07:01.795Z,95.98
2018-04-28T04:08:00.242Z,95.98
2018-04-28T04:09:00.465Z,96.36
2018-04-28T04:10:00.689Z,95.89
2018-04-28T04:11:00.900Z,95.70
2018-04-28T04:12:01.130Z,95.60
2018-04-28T04:13:01.347Z,95.98
2018-04-28T04:14:01.555Z,96.26
2018-04-28T04:15:01.768Z,96.36
2018-04-28T04:16:01.975Z,96.17
2018-04-28T04:17:02.187Z,95.41
2018-04-28T04:18:02.404Z,96.17
2018-04-28T04:19:02.607Z,95.79
2018-04-28T04:20:02.822Z,95.70
2018-04-28T04:21:03.045Z,95.79
2018-04-28T04:22:03.246Z,96.36
2018-04-28T04:23:03.454Z,96.36
2018-04-28T04:24:03.668Z,95.98
2018-04-28T04:25:03.894Z,96.93
2018-04-28T04:26:04.002Z,96.55
2018-04-28T04:27:04.204Z,96.55
2018-04-28T04:28:06.281Z,96.36
2018-04-28T04:29:04.637Z,96.64
2018-04-28T04:30:06.783Z,96.64
2018-04-28T04:31:05.007Z,96.36
2018-04-28T04:32:05.211Z,96.26
2018-04-28T04:33:05.442Z,96.36
2018-04-28T04:34:06.626Z,95.79
2018-04-28T04:35:05.838Z,96.08
2018-04-28T04:36:07.803Z,96.08
2018-04-28T04:37:07.300Z,96.26
2018-04-28T04:38:08.312Z,96.69
2018-04-28T04:39:06.619Z,97.12
2018-04-28T04:40:08.791Z,96.26
2018-04-28T04:41:07.009Z,95.75
2018-04-28T04:42:07.224Z,95.84
2018-04-28T04:43:07.439Z,96.08
2018-04-28T04:44:07.559Z,95.84
2018-04-28T04:45:07.788Z,95.27
2018-04-28T04:46:08.004Z,95.46
2018-04-28T04:47:08.212Z,95.36
2018-04-28T04:48:08.422Z,95.55
2018-04-28T04:49:10.306Z,95.55
2018-04-28T04:50:13.289Z,95.17
2018-04-28T04:51:08.909Z,95.55
2018-04-28T04:52:09.097Z,94.42
2018-04-28T04:53:09.324Z,94.70
2018-04-28T04:54:09.523Z,94.89
2018-04-28T04:55:11.292Z,94.51
2018-04-28T04:56:09.938Z,93.84
2018-04-28T04:57:11.792Z,93.75
2018-04-28T04:58:10.142Z,92.61
2018-04-28T04:59:10.344Z,92.71
2018-04-28T05:00:10.562Z,92.42
2018-04-28T05:01:10.792Z,92.80
2018-04-28T05:02:10.986Z,92.80
2018-04-28T05:03:11.187Z,92.71
2018-04-28T05:04:13.334Z,93.18
2018-04-28T05:05:11.635Z,93.37
2018-04-28T05:06:11.832Z,93.56
2018-04-28T05:07:12.043Z,94.42
2018-04-28T05:08:12.265Z,94.89
2018-04-28T05:09:14.289Z,94.65
2018-04-28T05:10:14.286Z,94.18
2018-04-28T05:11:12.756Z,93.41
2018-04-28T05:12:14.793Z,93.13
2018-04-28T05:13:13.113Z,92.75
2018-04-28T05:14:13.338Z,92.37
2018-04-28T05:15:13.558Z,92.85
2018-04-28T05:16:13.765Z,92.08
2018-04-28T05:17:13.973Z,92.08
2018-04-28T05:18:14.185Z,92.32
2018-04-28T05:19:14.410Z,91.56
2018-04-28T05:20:14.611Z,91.56
2018-04-28T05:21:14.828Z,91.08
2018-04-28T05:22:17.798Z,90.99
2018-04-28T05:23:15.270Z,91.18
2018-04-28T05:24:15.481Z,90.66
2018-04-28T05:25:17.304Z,90.08
2018-04-28T05:26:15.904Z,88.85
2018-04-28T05:27:17.788Z,88.42
2018-04-28T05:28:16.263Z,87.56
2018-04-28T05:29:18.293Z,86.18
2018-04-28T05:30:16.622Z,85.03
2018-04-28T05:31:16.839Z,83.51
2018-04-28T05:32:18.797Z,82.79
2018-04-28T05:33:17.245Z,80.83
2018-04-28T05:34:17.480Z,78.49
2018-04-28T05:35:17.684Z,77.53
2018-04-28T05:36:17.813Z,76.62
2018-04-28T05:37:17.909Z,75.85
2018-04-28T05:38:18.119Z,74.55
2018-04-28T05:39:18.333Z,73.50
2018-04-28T05:40:20.286Z,72.36
2018-04-28T05:41:18.743Z,72.20
2018-04-28T05:42:18.960Z,71.15
2018-04-28T05:43:19.173Z,70.04
2018-04-28T05:44:19.382Z,69.56
2018-04-28T05:45:19.601Z,69.02
2018-04-28T05:46:19.818Z,67.53
2018-04-28T05:47:21.789Z,67.34
2018-04-28T05:48:20.283Z,66.76
2018-04-28T05:49:20.470Z,66.76
2018-04-28T05:50:20.682Z,67.63
2018-04-28T05:51:22.787Z,67.24
2018-04-28T05:52:21.137Z,66.13
2018-04-28T05:53:21.349Z,66.22
2018-04-28T05:54:21.560Z,65.88
2018-04-28T05:55:21.771Z,64.82
2018-04-28T05:56:21.983Z,65.01
2018-04-28T05:57:22.192Z,63.89
2018-04-28T05:58:22.414Z,62.77
2018-04-28T05:59:22.619Z,62.10
2018-04-28T06:00:24.785Z,61.91
2018-04-28T06:01:22.999Z,61.91
2018-04-28T06:02:24.818Z,61.88
2018-04-28T06:03:23.387Z,62.33
2018-04-28T06:04:23.594Z,62.81
2018-04-28T06:05:23.811Z,62.33
2018-04-28T06:06:24.022Z,61.69
2018-04-28T06:07:24.239Z,61.60
2018-04-28T06:08:24.469Z,60.67
2018-04-28T06:09:25.542Z,59.93
2018-04-28T06:10:26.788Z,59.26
2018-04-28T06:11:25.009Z,58.33
2018-04-28T06:12:27.790Z,57.95
2018-04-28T06:13:25.389Z,56.89
2018-04-28T06:14:25.638Z,56.34
2018-04-28T06:15:25.825Z,55.57
2018-04-28T06:16:26.038Z,54.90
2018-04-28T06:17:26.257Z,55.69
2018-04-28T06:18:26.466Z,54.28
2018-04-28T06:19:26.680Z,53.25
2018-04-28T06:20:26.905Z,52.87
2018-04-28T06:21:27.103Z,52.58
2018-04-28T06:22:27.325Z,52.03
2018-04-28T06:23:27.552Z,51.35
2018-04-28T06:24:27.762Z,50.99
2018-04-28T06:25:27.999Z,49.96
2018-04-28T06:26:28.211Z,48.61
2018-04-28T06:27:28.425Z,48.06
2018-04-28T06:28:28.648Z,47.12
2018-04-28T06:29:28.867Z,47.46
2018-04-28T06:30:30.797Z,47.00
2018-04-28T06:31:29.264Z,47.36
2018-04-28T06:32:29.483Z,47.08
2018-04-28T06:33:29.709Z,47.19
2018-04-28T06:34:29.935Z,47.39
2018-04-28T06:35:30.153Z,47.19
2018-04-28T06:36:30.385Z,47.12
2018-04-28T06:37:30.685Z,45.97
2018-04-28T06:38:33.815Z,45.65
2018-04-28T06:39:31.009Z,46.25
2018-04-28T06:40:31.255Z,45.79
2018-04-28T06:41:31.454Z,44.54
2018-04-28T06:42:31.715Z,45.51
2018-04-28T06:43:31.822Z,44.37
2018-04-28T06:44:32.045Z,43.14
2018-04-28T06:45:33.791Z,43.52
2018-04-28T06:46:34.292Z,44.20
2018-04-28T06:47:32.654Z,44.46
2018-04-28T06:48:34.803Z,44.27
2018-04-28T06:49:33.021Z,44.93
2018-04-28T06:50:38.820Z,45.62
2018-04-28T06:51:33.421Z,45.70
2018-04-28T06:52:35.295Z,45.43
2018-04-28T06:53:35.510Z,45.36
2018-04-28T06:54:41.798Z,44.39
2018-04-28T06:55:34.128Z,43.52
2018-04-28T06:56:34.346Z,44.39
2018-04-28T06:57:37.301Z,44.37
2018-04-28T06:58:34.839Z,44.85
2018-04-28T06:59:35.007Z,45.36
2018-04-28T07:00:41.232Z,44.78
2018-04-28T07:01:37.303Z,45.77
2018-04-28T07:02:37.318Z,46.25
2018-04-28T07:03:37.312Z,48.06
2018-04-28T07:04:37.906Z,47.29
2018-04-28T07:05:36.078Z,46.64
2018-04-28T07:06:36.320Z,48.06
2018-04-28T07:07:38.301Z,48.18
2018-04-28T07:08:40.292Z,48.06
2018-04-28T07:09:38.031Z,47.24
2018-04-28T07:10:40.802Z,48.13
2018-04-28T07:11:39.345Z,47.75
2018-04-28T07:12:37.630Z,48.08
2018-04-28T07:13:37.831Z,46.83
2018-04-28T07:14:39.811Z,45.48
2018-04-28T07:15:43.794Z,46.52
2018-04-28T07:16:38.303Z,47.22
2018-04-28T07:17:42.291Z,46.42
2018-04-28T07:18:38.633Z,45.42
2018-04-28T07:19:38.852Z,47.08
2018-04-28T07:20:39.072Z,46.09
2018-04-28T07:21:40.813Z,45.59
2018-04-28T07:22:41.308Z,45.95
2018-04-28T07:23:39.784Z,45.66
2018-04-28T07:24:40.037Z,44.43
2018-04-28T07:25:40.151Z,44.26
2018-04-28T07:26:44.310Z,44.38
2018-04-28T07:27:42.338Z,43.55
2018-04-28T07:28:40.713Z,41.97
2018-04-28T07:29:40.907Z,42.72
2018-04-28T07:30:42.849Z,43.03
2018-04-28T07:31:43.307Z,43.32
2018-04-28T07:32:41.545Z,44.19
2018-04-28T07:33:45.308Z,43.03
2018-04-28T07:34:41.901Z,42.86
2018-04-28T07:35:42.124Z,41.51
2018-04-28T07:36:42.253Z,41.44
2018-04-28T07:37:42.482Z,41.17
2018-04-28T07:38:44.301Z,40.69
2018-04-28T07:39:44.794Z,40.49
2018-04-28T07:40:45.804Z,39.61
2018-04-28T07:41:43.295Z,40.59
2018-04-28T07:42:45.310Z,39.54
2018-04-28T07:43:45.342Z,37.91
2018-04-28T07:44:43.806Z,37.79
2018-04-28T07:45:45.830Z,37.98
2018-04-28T07:46:44.194Z,38.49
2018-04-28T07:47:45.446Z,37.83
2018-04-28T07:48:48.337Z,37.33
2018-04-28T07:49:45.774Z,37.45
2018-04-28T07:50:46.798Z,37.27
2018-04-28T07:51:45.177Z,36.55
2018-04-28T07:52:45.453Z,37.13
2018-04-28T07:53:45.563Z,37.23
2018-04-28T07:54:46.758Z,37.12
2018-04-28T07:55:46.009Z,37.50
2018-04-28T07:56:47.814Z,38.10
2018-04-28T07:57:46.444Z,37.52
2018-04-28T07:58:46.556Z,37.46
2018-04-28T07:59:46.832Z,36.71
2018-04-28T08:00:48.805Z,35.37
2018-04-28T08:01:48.208Z,35.10
2018-04-28T08:02:49.335Z,33.45
2018-04-28T08:03:53.305Z,34.12
2018-04-28T08:04:54.300Z,34.20
2018-04-28T08:05:51.805Z,34.81
2018-04-28T08:06:50.832Z,34.13
2018-04-28T08:07:51.796Z,33.84
2018-04-28T08:08:50.308Z,33.33
2018-04-28T08:09:48.544Z,34.20
2018-04-28T08:10:50.312Z,34.20
2018-04-28T08:11:50.847Z,34.21
2018-04-28T08:12:49.093Z,33.92
2018-04-28T08:13:49.320Z,33.55
2018-04-28T08:14:51.308Z,34.79
2018-04-28T08:15:51.331Z,35.74
2018-04-28T08:16:51.855Z,35.06
2018-04-28T08:17:51.833Z,34.29
2018-04-28T08:18:50.430Z,34.97
2018-04-28T08:19:50.650Z,35.36
2018-04-28T08:20:52.800Z,36.22
2018-04-28T08:21:51.028Z,36.65
2018-04-28T08:22:51.279Z,35.12
2018-04-28T08:23:53.299Z,33.09
2018-04-28T08:24:52.637Z,32.68
2018-04-28T08:25:55.299Z,33.91
2018-04-28T08:26:51.956Z,34.08
2018-04-28T08:27:52.187Z,35.32
2018-04-28T08:28:53.458Z,35.82
2018-04-28T08:29:53.315Z,35.34
2018-04-28T08:30:56.303Z,34.95
2018-04-28T08:31:55.802Z,34.39
2018-04-28T08:32:53.272Z,34.21
2018-04-28T08:33:57.300Z,34.20
2018-04-28T08:34:53.661Z,34.97
2018-04-28T08:35:53.900Z,34.78
2018-04-28T08:36:54.188Z,35.66
2018-04-28T08:37:56.355Z,33.94
2018-04-28T08:38:54.570Z,33.15
2018-04-28T08:39:56.311Z,33.34
2018-04-28T08:40:55.307Z,34.00
2018-04-28T08:41:56.810Z,33.72
2018-04-28T08:43:02.832Z,33.52
2018-04-28T08:43:55.450Z,33.92
2018-04-28T08:44:55.566Z,33.76
2018-04-28T08:45:57.316Z,31.74
2018-04-28T08:46:57.809Z,31.37
2018-04-28T08:47:56.170Z,30.68
2018-04-28T08:48:58.320Z,30.47
2018-04-28T08:49:58.317Z,31.36
2018-04-28T08:50:57.805Z,31.84
2018-04-28T08:53:28.910Z,31.36
2018-04-28T08:54:31.691Z,31.67
2018-04-28T08:55:31.876Z,30.86
2018-04-28T08:56:30.532Z,31.13
2018-04-28T08:57:29.652Z,30.52
2018-04-28T08:58:30.645Z,31.30
2018-04-28T08:59:32.683Z,32.92
2018-04-28T09:00:31.678Z,33.40
2018-04-28T09:01:32.193Z,32.94
2018-04-28T09:02:34.071Z,32.65
2018-04-28T09:03:30.768Z,33.02
2018-04-28T09:04:33.686Z,33.98
2018-04-28T09:05:31.061Z,34.18
2018-04-28T09:06:35.175Z,34.74
2018-04-28T09:07:31.428Z,34.74
2018-04-28T09:08:32.149Z,34.66
2018-04-28T09:09:31.766Z,34.20
2018-04-28T09:10:35.632Z,33.73
2018-04-28T09:11:33.695Z,31.71
2018-04-28T09:12:34.227Z,30.75
2018-04-28T09:13:32.479Z,30.28
2018-04-28T09:14:36.680Z,31.25
2018-04-28T09:15:35.687Z,30.55
2018-04-28T09:16:33.080Z,31.13
2018-04-28T09:17:33.196Z,31.94
2018-04-28T09:18:33.478Z,30.58
2018-04-28T09:19:35.270Z,30.38
2018-04-28T09:20:35.693Z,30.65
2018-04-28T09:21:33.929Z,31.52
2018-04-28T09:22:35.684Z,31.34
2018-04-28T09:23:34.289Z,31.34
2018-04-28T09:24:37.157Z,31.34
2018-04-28T09:25:39.704Z,31.44
2018-04-28T09:26:34.976Z,30.85
2018-04-28T09:27:57.188Z,31.80
2018-04-28T09:28:39.181Z,31.60
2018-04-28T09:29:36.184Z,31.43
2018-04-28T09:30:39.186Z,30.33
2018-04-28T09:31:37.694Z,31.31
2018-04-28T09:32:37.695Z,31.43
2018-04-28T09:33:41.697Z,31.33
2018-04-28T09:34:36.432Z,31.25
2018-04-28T09:35:36.532Z,31.83
2018-04-28T09:36:39.689Z,32.02
2018-04-28T09:37:38.684Z,31.05
2018-04-28T09:38:39.167Z,30.49
2018-04-28T09:39:39.181Z,29.88
2018-04-28T09:40:38.150Z,30.36
2018-04-28T09:41:39.700Z,32.20
2018-04-28T09:42:39.731Z,32.51
2018-04-28T09:43:39.071Z,31.71
2018-04-28T09:44:39.315Z,32.49
2018-04-28T09:45:38.540Z,31.63
2018-04-28T09:46:46.740Z,30.86
2018-04-28T09:47:38.981Z,31.26
2018-04-28T09:48:42.886Z,31.20
2018-04-28T09:49:39.451Z,28.98
2018-04-28T09:50:41.192Z,28.68
2018-04-28T09:51:39.798Z,29.47
2018-04-28T09:52:40.035Z,29.34
2018-04-28T09:53:42.249Z,28.66
2018-04-28T09:54:43.191Z,29.17
2018-04-28T09:55:42.185Z,28.77
2018-04-28T09:56:40.826Z,27.60
2018-04-28T09:57:42.743Z,27.49
2018-04-28T09:58:44.679Z,27.78
2018-04-28T09:59:41.277Z,28.23
2018-04-28T10:00:42.545Z,28.72
2018-04-28T10:01:43.186Z,29.20
2018-04-28T10:02:42.634Z,29.32
2018-04-28T10:03:42.000Z,29.71
2018-04-28T10:04:42.228Z,28.36
2018-04-28T10:05:46.184Z,28.08
2018-04-28T10:06:42.653Z,28.36
2018-04-28T10:07:43.919Z,29.03
2018-04-28T10:08:44.077Z,29.09
2018-04-28T10:09:44.727Z,30.25
2018-04-28T10:10:45.220Z,31.34
2018-04-28T10:11:43.582Z,29.02
2018-04-28T10:12:45.708Z,29.69
2018-04-28T10:13:46.697Z,30.20
2018-04-28T10:15:05.191Z,30.18
2018-04-28T10:15:44.392Z,30.54
2018-04-28T10:16:46.194Z,30.33
2018-04-28T10:17:44.842Z,31.70
2018-04-28T10:18:47.702Z,32.59
2018-04-28T10:19:48.687Z,31.94
2018-04-28T10:20:45.972Z,30.68
2018-04-28T10:21:47.188Z,30.46
2018-04-28T10:22:47.819Z,31.34
2018-04-28T10:23:49.694Z,30.47
2018-04-28T10:24:46.716Z,31.46
2018-04-28T10:25:46.376Z,31.47
2018-04-28T10:26:48.136Z,30.38
2018-04-28T10:27:46.777Z,31.16
2018-04-28T10:28:49.660Z,30.49
2018-04-28T10:29:48.687Z,31.33
2018-04-28T10:30:50.222Z,31.26
2018-04-28T10:31:47.441Z,30.57
2018-04-28T10:32:53.181Z,31.33
2018-04-28T10:33:49.724Z,31.41
2018-04-28T10:34:48.139Z,31.31
2018-04-28T10:35:48.246Z,31.10
2018-04-28T10:36:48.363Z,31.41
2018-04-28T10:37:49.584Z,31.49
2018-04-28T10:38:50.846Z,31.31
2018-04-28T10:39:48.962Z,31.40
2018-04-28T10:40:51.643Z,32.56
2018-04-28T10:41:51.196Z,31.89
2018-04-28T10:42:56.190Z,32.47
2018-04-28T10:43:49.772Z,31.62
2018-04-28T10:44:51.035Z,31.54
2018-04-28T10:45:52.636Z,30.46
2018-04-28T10:46:50.410Z,31.23
2018-04-28T10:47:50.632Z,31.34
2018-04-28T10:48:50.895Z,30.36
2018-04-28T10:49:51.076Z,30.46
2018-04-28T10:50:53.184Z,30.43
2018-04-28T10:51:53.235Z,30.33
2018-04-28T10:52:55.714Z,30.73
2018-04-28T10:53:53.722Z,31.22
2018-04-28T10:54:53.144Z,31.12
2018-04-28T10:55:53.404Z,30.52
2018-04-28T10:57:07.236Z,31.40
2018-04-28T10:57:54.705Z,31.41
2018-04-28T10:58:54.735Z,31.23
2018-04-28T10:59:56.697Z,31.25
2018-04-28T11:01:00.199Z,30.57
2018-04-28T11:01:57.186Z,29.99
2018-04-28T11:02:53.655Z,29.57
2018-04-28T11:03:53.876Z,30.44
2018-04-28T11:04:54.159Z,31.43
2018-04-28T11:05:56.186Z,30.18
2018-04-28T11:06:56.202Z,29.32
2018-04-28T11:07:54.701Z,28.36
2018-04-28T11:08:56.696Z,27.17
2018-04-28T11:09:55.042Z,27.73
2018-04-28T11:10:56.295Z,29.10
2018-04-28T11:11:55.409Z,27.66
2018-04-28T11:12:58.187Z,27.56
2018-04-28T11:13:58.701Z,27.85
2018-04-28T11:15:02.937Z,29.09
2018-04-28T11:15:57.686Z,28.98
2018-04-28T11:16:59.172Z,29.06
2018-04-28T11:17:58.192Z,29.24
2018-04-28T11:18:58.210Z,29.34
2018-04-28T11:19:58.264Z,30.11
2018-04-28T11:20:57.181Z,30.48
2018-04-28T11:21:57.305Z,29.45
2018-04-28T11:22:59.188Z,28.99
2018-04-28T11:23:57.797Z,28.54
2018-04-28T11:24:58.099Z,27.46
2018-04-28T11:26:05.195Z,26.39
2018-04-28T11:27:00.195Z,27.06
2018-04-28T11:27:58.546Z,26.95
2018-04-28T11:28:58.762Z,26.86
2018-04-28T11:30:00.687Z,28.03
2018-04-28T11:30:59.160Z,27.15
2018-04-28T11:31:59.408Z,27.24
2018-04-28T11:32:59.625Z,27.60
2018-04-28T11:33:59.823Z,28.55
2018-04-28T11:35:03.688Z,30.07
2018-04-28T11:36:00.287Z,31.12
2018-04-28T11:37:00.526Z,31.33
2018-04-28T11:38:02.191Z,32.10
2018-04-28T11:39:00.792Z,32.52
2018-04-28T11:40:01.014Z,30.49
2018-04-28T11:41:03.192Z,30.51
2018-04-28T11:42:03.220Z,29.74
2018-04-28T11:43:01.618Z,30.22
2018-04-28T11:44:01.723Z,30.41
2018-04-28T11:45:02.958Z,30.24
2018-04-28T11:46:02.189Z,29.17
2018-04-28T11:47:02.424Z,28.70
2018-04-28T11:48:03.655Z,27.83
2018-04-28T11:49:02.897Z,28.04
2018-04-28T11:50:10.702Z,26.87
2018-04-28T11:51:03.294Z,27.34
2018-04-28T11:52:25.517Z,28.30
2018-04-28T11:53:03.708Z,28.67
2018-04-28T11:54:04.959Z,28.76
2018-04-28T11:55:05.695Z,29.32
2018-04-28T11:56:08.387Z,30.56
2018-04-28T11:57:04.524Z,31.15
2018-04-28T11:58:08.202Z,29.63
2018-04-28T11:59:06.733Z,28.66
2018-04-28T12:00:06.082Z,29.43
2018-04-28T12:01:05.191Z,29.93
2018-04-28T12:02:07.203Z,29.83
2018-04-28T12:03:05.537Z,29.43
2018-04-28T12:04:08.725Z,29.82
2018-04-28T12:05:06.970Z,29.63
2018-04-28T12:06:09.701Z,30.38
2018-04-28T12:07:06.339Z,30.40
2018-04-28T12:08:07.534Z,31.27
2018-04-28T12:09:08.699Z,30.79
2018-04-28T12:10:10.690Z,30.69
2018-04-28T12:11:07.170Z,30.30
2018-04-28T12:12:07.384Z,30.49
2018-04-28T12:13:07.608Z,30.40
2018-04-28T12:14:07.824Z,30.30
2018-04-28T12:15:09.730Z,30.30
2018-04-28T12:16:10.194Z,30.40
2018-04-28T12:17:08.415Z,31.40
2018-04-28T12:18:08.647Z,30.63
2018-04-28T12:19:10.708Z,29.69
2018-04-28T12:20:09.043Z,29.22
2018-04-28T12:21:09.381Z,28.43
2018-04-28T12:22:12.226Z,28.70
2018-04-28T12:23:17.204Z,29.85
2018-04-28T12:24:11.738Z,30.51
2018-04-28T12:25:12.692Z,31.46
2018-04-28T12:26:11.703Z,31.65
2018-04-28T12:27:12.241Z,32.41
2018-04-28T12:28:12.193Z,32.52
2018-04-28T12:29:16.201Z,32.14
2018-04-28T12:30:10.786Z,31.57
2018-04-28T12:31:12.703Z,31.01
2018-04-28T12:32:14.704Z,31.41
2018-04-28T12:33:11.294Z,30.25
2018-04-28T12:34:11.549Z,30.55
2018-04-28T12:35:11.656Z,30.36
2018-04-28T12:36:11.881Z,31.22
2018-04-28T12:37:12.140Z,30.35
2018-04-28T12:38:12.265Z,31.20
2018-04-28T12:39:14.207Z,31.31
2018-04-28T12:40:15.217Z,30.63
2018-04-28T12:41:14.694Z,31.43
2018-04-28T12:42:13.052Z,31.83
2018-04-28T12:43:13.270Z,32.42
2018-04-28T12:44:13.484Z,31.26
2018-04-28T12:45:15.202Z,29.24
2018-04-28T12:46:16.742Z,30.62
2018-04-28T12:47:15.123Z,30.60
2018-04-28T12:48:16.199Z,29.73
2018-04-28T12:49:17.206Z,30.41
2018-04-28T12:50:17.204Z,30.31
2018-04-28T12:51:17.198Z,30.29
2018-04-28T12:52:14.923Z,31.16
2018-04-28T12:53:17.694Z,31.26
2018-04-28T12:54:31.205Z,30.58
2018-04-28T12:55:27.212Z,30.57
2018-04-28T12:56:15.666Z,31.44